Time;durP1;ratioP1;P1;durP2;ratioP2;P2;SDS_P1;SDS_P2;PMS_P1;PMS_P2;Temp;Humidity;BMP_temperature;BMP_pressure;BME280_temperature;BME280_humidity;BME280_pressure;Samples;Min_cycle;Max_cycle;Signal;HPM_P1;HPM_P2
2023/11/12 00:00:56;;;;;;;10.55;8.00;;;;;;;10.83;69.04;97969.69;5092925;28;20546;-49
2023/11/12 00:03:22;;;;;;;10.40;5.43;;;;;;;10.63;68.41;97959.41;5092940;28;20028;-49
2023/11/12 00:05:50;;;;;;;8.13;4.95;;;;;;;10.58;68.11;97963.47;5093108;28;20084;-49
2023/11/12 00:08:18;;;;;;;9.10;5.15;;;;;;;10.33;67.35;97973.22;5092693;28;20047;-49
2023/11/12 00:10:44;;;;;;;9.90;5.90;;;;;;;9.99;69.97;97981.31;5074892;28;20024;-49
2023/11/12 00:13:10;;;;;;;17.75;14.10;;;;;;;9.97;72.58;97979.94;5092760;28;20046;-48
2023/11/12 00:15:36;;;;;;;21.45;15.32;;;;;;;9.67;74.46;97948.31;5092673;28;20490;-49
2023/11/12 00:18:02;;;;;;;17.35;13.18;;;;;;;9.70;76.72;97893.66;5092603;28;20035;-49
2023/11/12 00:20:28;;;;;;;15.98;9.65;;;;;;;9.34;74.75;97879.41;5092581;28;20020;-49
2023/11/12 00:22:54;;;;;;;9.45;8.48;;;;;;;8.92;76.68;97886.91;5091779;28;20040;-48
2023/11/12 00:25:20;;;;;;;8.95;6.90;;;;;;;8.62;78.30;97884.03;5091144;28;20024;-47
2023/11/12 00:27:46;;;;;;;20.60;18.42;;;;;;;8.36;80.15;97877.84;5092465;28;20103;-47
2023/11/12 00:30:11;;;;;;;9.63;5.78;;;;;;;8.13;81.54;97869.66;5092353;28;20051;-47
2023/11/12 00:32:37;;;;;;;10.20;3.17;;;;;;;8.00;84.30;97878.34;5092393;28;20102;-47
2023/11/12 00:35:05;;;;;;;8.48;2.15;;;;;;;7.92;86.96;97868.91;5092373;28;20024;-47
2023/11/12 00:37:30;;;;;;;20.98;18.92;;;;;;;7.82;88.38;97846.81;5092310;28;20099;-46
2023/11/12 00:39:56;;;;;;;6.07;4.07;;;;;;;7.72;88.66;97827.13;5091011;28;20111;-46
2023/11/12 00:42:22;;;;;;;3.88;1.95;;;;;;;7.66;88.34;97812.28;5092293;28;20443;-47
2023/11/12 00:44:47;;;;;;;3.35;1.70;;;;;;;7.60;86.86;97800.81;5091109;28;20027;-47
2023/11/12 00:47:14;;;;;;;10.38;8.43;;;;;;;7.54;87.23;97798.22;5092179;28;20028;-48
2023/11/12 00:49:39;;;;;;;2.92;2.10;;;;;;;7.51;88.97;97809.09;5090737;28;20419;-48
2023/11/12 00:52:05;;;;;;;2.00;1.35;;;;;;;7.46;89.81;97837.59;5092041;28;20032;-47
2023/11/12 00:54:32;;;;;;;5.13;2.70;;;;;;;7.44;90.58;97845.63;5092086;28;20020;-47
2023/11/12 00:56:58;;;;;;;9.38;1.75;;;;;;;7.40;91.88;97840.03;5091984;28;20534;-46
2023/11/12 00:59:24;;;;;;;4.38;3.90;;;;;;;7.38;92.62;97831.59;5092058;28;20028;-46
2023/11/12 01:01:49;;;;;;;5.32;1.83;;;;;;;7.36;92.87;97835.38;5091968;28;20485;-46
2023/11/12 01:04:15;;;;;;;28.30;25.65;;;;;;;7.34;92.69;97819.13;5091977;28;20020;-46
2023/11/12 01:06:41;;;;;;;5.70;3.42;;;;;;;7.33;91.94;97820.94;5091829;28;20024;-47
2023/11/12 01:09:10;;;;;;;12.07;8.55;;;;;;;7.37;92.29;97837.00;5091869;28;20436;-47
2023/11/12 01:11:37;;;;;;;3.80;2.30;;;;;;;7.42;92.82;97831.97;5092082;28;20030;-47
2023/11/12 01:14:03;;;;;;;6.60;5.15;;;;;;;7.45;92.88;97818.53;5090588;28;20438;-47
2023/11/12 01:16:29;;;;;;;13.25;10.13;;;;;;;7.47;90.50;97805.28;5091764;28;20497;-47
2023/11/12 01:18:58;;;;;;;21.85;18.98;;;;;;;7.53;88.11;97800.03;5091806;28;20032;-47
2023/11/12 01:21:25;;;;;;;6.97;3.75;;;;;;;7.64;88.56;97806.44;5091498;28;20126;-48
2023/11/12 01:23:51;;;;;;;1.90;1.38;;;;;;;7.69;87.75;97804.03;5091880;28;20032;-48
2023/11/12 01:26:16;;;;;;;4.65;2.58;;;;;;;7.80;84.11;97787.72;5090352;28;20047;-48
2023/11/12 01:28:42;;;;;;;2.90;2.03;;;;;;;7.89;84.69;97792.75;5091633;28;20036;-48
2023/11/12 01:31:08;;;;;;;4.18;2.50;;;;;;;7.94;85.63;97798.16;5091722;28;20089;-48
2023/11/12 01:33:34;;;;;;;2.92;0.90;;;;;;;7.97;81.18;97803.78;5091675;28;20055;-48
2023/11/12 01:36:00;;;;;;;9.00;8.18;;;;;;;7.98;84.98;97820.25;5094427;28;20498;-48
2023/11/12 01:38:26;;;;;;;4.78;3.83;;;;;;;7.95;87.51;97812.84;5095709;28;20062;-48
2023/11/12 01:40:52;;;;;;;4.72;2.30;;;;;;;7.95;88.61;97820.69;5094333;28;20076;-48
2023/11/12 01:43:19;;;;;;;5.00;3.72;;;;;;;7.95;91.02;97820.69;5095637;28;20055;-48
2023/11/12 01:45:45;;;;;;;16.33;9.85;;;;;;;7.88;92.52;97801.59;5094313;28;20077;-47
2023/11/12 01:48:15;;;;;;;4.20;2.88;;;;;;;7.70;91.28;97805.63;5077216;28;20066;-46
2023/11/12 01:50:42;;;;;;;9.80;8.82;;;;;;;7.47;92.43;97813.91;5095348;28;20024;-46
2023/11/12 01:53:14;;;;;;;12.18;10.45;;;;;;;7.35;93.55;97834.59;5077302;28;20028;-46
2023/11/12 01:55:40;;;;;;;24.75;22.48;;;;;;;7.33;96.05;97809.69;5095413;28;20035;-46
2023/11/12 01:58:09;;;;;;;5.50;3.97;;;;;;;7.31;97.65;97799.44;5095275;28;20039;-46
2023/11/12 02:00:39;;;;;;;8.23;7.38;;;;;;;7.43;99.08;97830.19;5095222;28;20040;-46
2023/11/12 02:03:09;;;;;;;7.00;3.13;;;;;;;7.53;100.00;97841.81;5095241;28;20553;-46
2023/11/12 02:05:36;;;;;;;5.32;1.67;;;;;;;7.59;100.00;97858.50;5093817;28;20119;-46
2023/11/12 02:08:05;;;;;;;16.42;12.07;;;;;;;7.66;100.00;97872.31;5095121;28;20028;-46
2023/11/12 02:10:35;;;;;;;51.42;46.55;;;;;;;7.87;100.00;97862.66;5095235;28;20028;-46
2023/11/12 02:13:06;;;;;;;8.98;6.95;;;;;;;8.00;100.00;97857.44;5095113;28;20024;-46
2023/11/12 02:15:33;;;;;;;5.05;2.75;;;;;;;8.27;100.00;97842.50;5094997;28;20024;-46
2023/11/12 02:17:59;;;;;;;11.18;10.07;;;;;;;8.30;100.00;97836.06;5093650;28;20055;-46
2023/11/12 02:20:25;;;;;;;4.75;2.00;;;;;;;8.21;100.00;97838.09;5076707;28;20031;-46
2023/11/12 02:22:51;;;;;;;9.30;6.93;;;;;;;8.04;100.00;97857.84;5093353;28;20174;-46
2023/11/12 02:25:17;;;;;;;97.32;88.72;;;;;;;7.96;100.00;97856.22;5094745;28;20020;-46
2023/11/12 02:27:46;;;;;;;64.22;57.85;;;;;;;7.98;100.00;97852.41;5095316;28;20035;-46
2023/11/12 02:30:12;;;;;;;73.50;66.38;;;;;;;8.59;100.00;97827.72;5094676;28;20020;-46
2023/11/12 02:32:40;;;;;;;35.58;32.03;;;;;;;8.87;100.00;97810.84;5094870;28;20035;-46
2023/11/12 02:35:07;;;;;;;50.97;46.17;;;;;;;8.68;100.00;97803.94;5094595;28;20016;-46
2023/11/12 02:37:35;;;;;;;50.10;41.28;;;;;;;8.38;100.00;97807.06;5094504;28;20035;-46
2023/11/12 02:40:01;;;;;;;20.77;14.18;;;;;;;7.96;100.00;97819.66;5094520;28;20027;-46
2023/11/12 02:42:29;;;;;;;122.90;102.78;;;;;;;7.62;100.00;97821.50;5094436;28;20034;-46
2023/11/12 02:44:55;;;;;;;28.88;25.08;;;;;;;7.53;100.00;97812.31;5094379;28;20024;-46
2023/11/12 02:47:21;;;;;;;86.30;73.28;;;;;;;7.93;100.00;97805.19;5093966;28;20056;-46
2023/11/12 02:50:05;;;;;;;16.55;12.55;;;;;;;8.27;100.00;97790.22;5092973;28;20059;-47
2023/11/12 02:52:32;;;;;;;28.33;24.00;;;;;;;8.53;100.00;97796.34;5094307;28;20378;-47
2023/11/12 02:54:58;;;;;;;7.72;5.43;;;;;;;8.46;100.00;97780.69;5094274;28;20028;-47
2023/11/12 02:57:24;;;;;;;53.65;44.28;;;;;;;8.20;100.00;97766.69;5094179;28;20028;-47
2023/11/12 02:59:50;;;;;;;41.05;32.78;;;;;;;7.88;100.00;97775.47;5094081;28;20023;-46
2023/11/12 03:02:16;;;;;;;13.10;8.88;;;;;;;7.51;100.00;97773.34;5092772;28;20020;-47
2023/11/12 03:04:42;;;;;;;7.97;3.55;;;;;;;7.30;100.00;97761.28;5092769;28;20448;-47
2023/11/12 03:07:08;;;;;;;7.68;2.10;;;;;;;7.09;100.00;97757.09;5092688;28;20036;-47
2023/11/12 03:09:34;;;;;;;6.05;2.58;;;;;;;7.02;100.00;97761.50;5092564;28;20489;-48
2023/11/12 03:12:03;;;;;;;5.93;2.80;;;;;;;7.12;100.00;97748.06;5092627;28;20038;-48
2023/11/12 03:14:30;;;;;;;6.10;2.28;;;;;;;7.31;100.00;97749.06;5093861;28;20016;-48
2023/11/12 03:16:55;;;;;;;4.72;1.98;;;;;;;7.57;100.00;97728.13;5092456;28;20034;-48
2023/11/12 03:19:24;;;;;;;17.23;14.27;;;;;;;7.84;100.00;97725.44;5092416;28;20032;-48
2023/11/12 03:21:52;;;;;;;5.30;3.20;;;;;;;7.98;100.00;97734.81;5093503;28;20456;-48
2023/11/12 03:24:19;;;;;;;5.95;1.55;;;;;;;8.05;100.00;97739.22;5093618;28;20020;-48
2023/11/12 03:26:45;;;;;;;5.45;1.75;;;;;;;8.06;100.00;97720.72;5092321;28;20035;-48
2023/11/12 03:29:11;;;;;;;8.95;3.95;;;;;;;8.15;100.00;97721.31;5093470;28;20033;-48
2023/11/12 03:31:38;;;;;;;4.25;2.35;;;;;;;8.20;100.00;97703.97;5092211;28;20524;-48
2023/11/12 03:34:04;;;;;;;4.28;2.50;;;;;;;8.12;98.77;97706.03;5092175;28;20456;-48
2023/11/12 03:36:30;;;;;;;44.25;40.10;;;;;;;8.08;97.96;97720.53;5093396;28;20020;-48
2023/11/12 03:38:55;;;;;;;5.60;4.57;;;;;;;8.28;100.00;97702.13;5092091;28;20036;-48
2023/11/12 03:41:21;;;;;;;3.78;2.70;;;;;;;8.29;99.72;97683.63;5093340;28;20028;-48
2023/11/12 03:43:47;;;;;;;1.05;0.85;;;;;;;8.28;98.82;97686.47;5093288;28;20511;-48
2023/11/12 03:46:12;;;;;;;6.40;4.78;;;;;;;8.24;95.41;97690.50;5093236;28;20119;-48
2023/11/12 03:48:38;;;;;;;6.15;3.53;;;;;;;8.18;97.64;97687.69;5091818;28;20030;-48
2023/11/12 03:51:04;;;;;;;1.13;0.85;;;;;;;8.48;100.00;97702.06;5093165;28;20436;-48
2023/11/12 03:53:30;;;;;;;3.13;2.78;;;;;;;8.52;95.08;97714.50;5091789;28;20024;-48
2023/11/12 03:55:56;;;;;;;5.60;1.77;;;;;;;8.56;98.43;97704.41;5093366;28;20027;-48
2023/11/12 03:58:22;;;;;;;6.35;3.67;;;;;;;8.74;100.00;97711.53;5092087;28;20020;-48
2023/11/12 04:00:47;;;;;;;8.40;7.53;;;;;;;8.87;100.00;97718.47;5092947;28;20028;-48
2023/11/12 04:03:14;;;;;;;3.72;1.80;;;;;;;8.92;99.17;97716.81;5092931;28;20022;-48
2023/11/12 04:05:41;;;;;;;2.30;1.10;;;;;;;8.89;95.30;97732.16;5092864;28;20048;-48
2023/11/12 04:08:07;;;;;;;3.38;1.25;;;;;;;9.00;98.45;97736.72;5092793;28;20047;-48
2023/11/12 04:10:33;;;;;;;6.50;4.15;;;;;;;9.39;100.00;97732.13;5092693;28;20103;-48
2023/11/12 04:12:59;;;;;;;5.70;1.98;;;;;;;9.70;100.00;97731.22;5092767;28;20039;-48
2023/11/12 04:15:25;;;;;;;4.95;1.10;;;;;;;9.76;95.63;97727.72;5092754;28;20119;-48
2023/11/12 04:17:51;;;;;;;2.88;1.20;;;;;;;9.61;95.65;97727.28;5091362;28;20032;-48
2023/11/12 04:20:17;;;;;;;2.17;0.98;;;;;;;9.73;98.33;97733.41;5092564;28;20378;-47
2023/11/12 04:22:42;;;;;;;4.78;3.05;;;;;;;9.65;94.16;97733.69;5091084;28;20101;-48
2023/11/12 04:25:09;;;;;;;3.10;1.98;;;;;;;9.59;94.07;97739.78;5092522;28;20020;-47
2023/11/12 04:27:37;;;;;;;3.38;1.58;;;;;;;9.52;95.19;97732.00;5092519;28;20643;-48
2023/11/12 04:30:06;;;;;;;3.17;0.93;;;;;;;9.40;92.12;97725.91;5091231;28;20016;-48
2023/11/12 04:32:35;;;;;;;3.95;0.95;;;;;;;9.61;96.25;97724.66;5092364;28;20020;-48
2023/11/12 04:35:01;;;;;;;1.45;0.88;;;;;;;9.66;95.54;97731.84;5092300;28;20524;-48
2023/11/12 04:37:27;;;;;;;3.95;1.40;;;;;;;9.57;94.21;97720.88;5092380;28;20036;-48
2023/11/12 04:39:52;;;;;;;4.00;3.05;;;;;;;9.51;96.01;97740.09;5092273;28;20543;-48
2023/11/12 04:42:18;;;;;;;5.78;1.30;;;;;;;9.62;99.77;97722.84;5090921;28;20066;-48
2023/11/12 04:44:44;;;;;;;6.95;6.20;;;;;;;9.66;100.00;97716.97;5092242;28;20016;-48
2023/11/12 04:47:10;;;;;;;2.20;1.13;;;;;;;9.66;99.74;97714.34;5092161;28;20028;-49
2023/11/12 04:49:37;;;;;;;28.02;25.08;;;;;;;9.63;99.45;97711.34;5092094;28;20031;-48
2023/11/12 04:52:04;;;;;;;2.83;2.35;;;;;;;9.64;98.72;97707.69;5092160;28;20031;-48
2023/11/12 04:54:30;;;;;;;15.27;13.85;;;;;;;9.68;97.35;97714.09;5092069;28;20027;-48
2023/11/12 04:56:56;;;;;;;4.30;3.40;;;;;;;9.67;96.98;97704.66;5091964;28;20092;-48
2023/11/12 04:59:22;;;;;;;5.20;4.70;;;;;;;9.76;98.65;97727.72;5092011;28;20644;-49
2023/11/12 05:01:49;;;;;;;2.97;1.83;;;;;;;9.73;94.77;97728.16;5092003;28;20034;-49
2023/11/12 05:04:16;;;;;;;3.30;2.53;;;;;;;9.75;96.98;97736.59;5091861;28;20020;-48
2023/11/12 05:06:42;;;;;;;4.32;2.28;;;;;;;9.99;100.00;97713.16;5074010;28;20451;-48
2023/11/12 05:09:08;;;;;;;3.22;2.40;;;;;;;9.99;99.37;97726.25;5091610;28;20059;-49
2023/11/12 05:11:37;;;;;;;24.10;22.02;;;;;;;10.08;100.00;97729.38;5091729;28;20055;-48
2023/11/12 05:14:02;;;;;;;6.25;3.45;;;;;;;10.19;100.00;97734.69;5091865;28;20025;-48
2023/11/12 05:16:28;;;;;;;5.90;2.05;;;;;;;10.33;100.00;97724.84;5091823;28;20131;-49
2023/11/12 05:18:54;;;;;;;3.13;0.90;;;;;;;10.63;100.00;97739.00;5090550;28;20032;-49
2023/11/12 05:21:20;;;;;;;19.70;17.95;;;;;;;11.23;100.00;97731.00;5090178;28;20059;-49
2023/11/12 05:23:45;;;;;;;2.92;1.70;;;;;;;11.68;100.00;97751.41;5091782;28;20051;-49
2023/11/12 05:26:11;;;;;;;1.60;1.00;;;;;;;11.53;100.00;97756.31;5073612;28;20028;-49
2023/11/12 05:28:37;;;;;;;5.05;1.65;;;;;;;11.56;100.00;97758.50;5091951;28;20393;-49
2023/11/12 05:31:03;;;;;;;2.13;0.82;;;;;;;11.52;100.00;97778.41;5091780;28;20107;-48
2023/11/12 05:33:28;;;;;;;1.75;1.25;;;;;;;11.57;100.00;97775.91;5091660;28;20024;-48
2023/11/12 05:35:54;;;;;;;2.13;0.82;;;;;;;11.71;100.00;97772.00;5091657;28;20028;-48
2023/11/12 05:38:20;;;;;;;9.13;7.32;;;;;;;11.67;100.00;97781.38;5091662;28;20543;-48
2023/11/12 05:40:46;;;;;;;4.20;3.08;;;;;;;11.50;95.78;97772.56;5091547;28;20520;-49
2023/11/12 05:43:12;;;;;;;0.88;0.75;;;;;;;11.31;97.70;97783.19;5091629;28;20106;-49
2023/11/12 05:45:37;;;;;;;1.38;0.80;;;;;;;11.08;93.40;97777.88;5091596;28;20016;-49
2023/11/12 05:48:03;;;;;;;7.53;5.85;;;;;;;10.94;93.67;97788.59;5091801;28;20035;-49
2023/11/12 05:50:29;;;;;;;2.72;1.10;;;;;;;10.96;93.62;97781.28;5091413;28;20108;-49
2023/11/12 05:52:55;;;;;;;1.60;1.20;;;;;;;10.94;91.47;97769.41;5091556;28;20028;-49
2023/11/12 05:55:21;;;;;;;5.90;2.47;;;;;;;10.72;88.83;97769.91;5091477;28;20494;-48
2023/11/12 05:57:46;;;;;;;5.45;0.95;;;;;;;10.50;87.67;97764.41;5090206;28;20117;-49
2023/11/12 06:00:12;;;;;;;2.60;1.33;;;;;;;10.39;90.04;97763.31;5091407;28;20028;-49
2023/11/12 06:02:39;;;;;;;0.43;0.43;;;;;;;10.32;86.89;97765.22;5091359;28;20020;-49
2023/11/12 06:05:05;;;;;;;1.67;0.57;;;;;;;10.31;85.09;97770.69;5091365;28;20024;-49
2023/11/12 06:07:32;;;;;;;8.45;7.63;;;;;;;10.29;83.85;97741.22;5091424;28;20059;-49
2023/11/12 06:09:59;;;;;;;2.78;2.03;;;;;;;10.26;83.59;97763.47;5091238;28;20121;-49
2023/11/12 06:12:25;;;;;;;2.28;1.00;;;;;;;10.23;86.08;97787.50;5091468;28;20024;-48
2023/11/12 06:14:51;;;;;;;5.38;3.78;;;;;;;10.21;88.60;97779.03;5091366;28;20078;-49
2023/11/12 06:17:16;;;;;;;2.00;0.73;;;;;;;10.17;87.59;97777.88;5090022;28;20047;-49
2023/11/12 06:19:42;;;;;;;1.05;0.80;;;;;;;10.19;87.89;97791.56;5091290;28;20032;-49
2023/11/12 06:22:08;;;;;;;0.50;0.50;;;;;;;10.26;87.69;97787.06;5093693;28;20036;-49
2023/11/12 06:24:33;;;;;;;1.58;0.55;;;;;;;10.29;88.37;97794.47;5093559;28;20024;-48
2023/11/12 06:26:59;;;;;;;1.35;0.60;;;;;;;10.35;89.62;97793.63;5094780;28;20058;-49
2023/11/12 06:29:25;;;;;;;4.03;1.40;;;;;;;10.45;91.49;97802.81;5094699;28;20505;-49
2023/11/12 06:31:51;;;;;;;2.10;1.15;;;;;;;10.41;91.14;97794.56;5094717;28;20020;-49
2023/11/12 06:34:17;;;;;;;3.72;1.70;;;;;;;10.48;94.81;97800.50;5094699;28;20024;-49
2023/11/12 06:36:43;;;;;;;3.30;1.20;;;;;;;10.59;94.42;97797.16;5094661;28;20068;-49
2023/11/12 06:39:13;;;;;;;3.90;2.33;;;;;;;11.18;97.39;97812.28;5094538;28;20024;-48
2023/11/12 06:41:43;;;;;;;3.97;3.30;;;;;;;11.48;96.74;97811.41;5094502;28;20024;-49
2023/11/12 06:44:09;;;;;;;7.10;4.10;;;;;;;11.59;97.25;97823.75;5094363;28;20028;-49
2023/11/12 06:46:36;;;;;;;3.95;2.35;;;;;;;11.59;97.82;97818.50;5094392;28;20032;-49
2023/11/12 06:49:03;;;;;;;4.80;3.72;;;;;;;11.54;98.03;97832.31;5094278;28;20107;-49
2023/11/12 06:51:29;;;;;;;7.05;5.78;;;;;;;11.54;98.65;97834.16;5076240;28;20111;-49
2023/11/12 06:53:55;;;;;;;15.55;13.57;;;;;;;11.74;99.40;97844.31;5094292;28;20021;-49
2023/11/12 06:56:23;;;;;;;21.30;18.50;;;;;;;12.01;99.17;97857.81;5092931;28;20073;-49
2023/11/12 06:58:48;;;;;;;28.30;22.40;;;;;;;12.10;98.64;97863.56;5094209;28;20017;-49
2023/11/12 07:01:14;;;;;;;10.43;9.52;;;;;;;12.22;97.29;97864.34;5092735;28;20073;-49
2023/11/12 07:03:40;;;;;;;43.95;39.63;;;;;;;12.69;98.55;97880.00;5092750;28;20450;-48
2023/11/12 07:06:06;;;;;;;69.68;63.13;;;;;;;12.96;95.05;97882.91;5094046;28;20024;-49
2023/11/12 07:08:32;;;;;;;35.67;32.05;;;;;;;13.03;88.72;97887.25;5093877;28;20027;-49
2023/11/12 07:10:58;;;;;;;44.85;40.33;;;;;;;13.13;90.94;97888.22;5092627;28;20024;-49
2023/11/12 07:13:24;;;;;;;41.45;37.30;;;;;;;13.47;93.12;97895.41;5092581;28;20463;-49
2023/11/12 07:15:50;;;;;;;34.75;31.33;;;;;;;13.57;88.00;97899.00;5093806;28;20020;-48
2023/11/12 07:18:16;;;;;;;7.18;6.35;;;;;;;13.64;88.00;97903.31;5092419;28;20497;-49
2023/11/12 07:20:41;;;;;;;4.90;1.70;;;;;;;13.50;87.61;97910.75;5092455;28;20036;-49
2023/11/12 07:23:07;;;;;;;3.08;1.10;;;;;;;13.24;85.92;97912.09;5093468;28;20059;-49
2023/11/12 07:25:33;;;;;;;6.03;2.35;;;;;;;12.94;85.62;97926.31;5093918;28;20091;-48
2023/11/12 07:27:59;;;;;;;4.47;1.70;;;;;;;12.74;85.59;97922.25;5093598;28;20059;-49
2023/11/12 07:30:24;;;;;;;2.63;1.30;;;;;;;12.48;87.38;97936.72;5093411;28;20508;-48
2023/11/12 07:32:50;;;;;;;1.92;1.00;;;;;;;12.37;89.96;97940.16;5093471;28;20113;-49
2023/11/12 07:35:16;;;;;;;2.67;1.15;;;;;;;12.31;91.64;97939.22;5093422;28;20024;-49
2023/11/12 07:37:42;;;;;;;5.28;3.08;;;;;;;12.31;91.86;97941.06;5093412;28;20071;-49
2023/11/12 07:40:10;;;;;;;1.35;0.70;;;;;;;12.52;89.19;97952.84;5092113;28;20031;-48
2023/11/12 07:42:39;;;;;;;3.00;1.33;;;;;;;12.73;89.75;97959.34;5093367;28;20039;-49
2023/11/12 07:45:09;;;;;;;4.22;2.10;;;;;;;13.14;92.53;97957.53;5075511;28;20734;-49
2023/11/12 07:47:35;;;;;;;3.78;0.90;;;;;;;13.27;88.19;97961.72;5093310;28;20028;-49
2023/11/12 07:50:02;;;;;;;8.82;4.28;;;;;;;13.10;86.87;97964.28;5093098;28;20016;-49
2023/11/12 07:52:28;;;;;;;4.72;2.25;;;;;;;13.66;90.66;97961.88;5091858;28;20036;-49
2023/11/12 07:54:54;;;;;;;2.20;1.20;;;;;;;14.16;88.83;97967.16;5091814;28;20085;-49
2023/11/12 07:57:20;;;;;;;3.90;1.30;;;;;;;14.61;85.75;97977.88;5091710;28;20039;-49
2023/11/12 07:59:45;;;;;;;2.90;1.20;;;;;;;14.29;84.55;97986.38;5092970;28;20440;-49
2023/11/12 08:02:11;;;;;;;6.85;2.90;;;;;;;13.63;85.74;97992.19;5091683;28;20024;-48
2023/11/12 08:04:37;;;;;;;7.13;2.30;;;;;;;13.56;90.11;97999.41;5092865;28;20028;-49
2023/11/12 08:07:03;;;;;;;2.65;1.60;;;;;;;13.97;92.14;98002.78;5092815;28;20024;-49
2023/11/12 08:09:28;;;;;;;8.90;6.38;;;;;;;14.11;90.96;98008.53;5091467;28;20043;-49
2023/11/12 08:11:54;;;;;;;5.88;1.88;;;;;;;13.94;89.17;98009.34;5092700;28;20055;-49
2023/11/12 08:14:20;;;;;;;5.53;1.98;;;;;;;14.04;92.70;98016.59;5091437;28;20016;-49
2023/11/12 08:16:46;;;;;;;5.32;2.45;;;;;;;14.33;94.16;98032.38;5092736;28;20107;-49
2023/11/12 08:19:12;;;;;;;3.85;1.38;;;;;;;14.54;93.39;98046.66;5091355;28;20032;-49
2023/11/12 08:21:37;;;;;;;3.08;1.85;;;;;;;14.27;91.97;98044.69;5091206;28;20051;-49
2023/11/12 08:24:05;;;;;;;3.60;1.40;;;;;;;13.67;91.63;98046.03;5091273;28;20055;-48
2023/11/12 08:26:32;;;;;;;2.70;1.35;;;;;;;12.87;90.35;98055.47;5092546;28;20494;-49
2023/11/12 08:28:58;;;;;;;4.35;1.95;;;;;;;12.46;94.07;98070.38;5091100;28;20102;-48
2023/11/12 08:31:25;;;;;;;17.17;7.10;;;;;;;12.36;97.42;98075.41;5091153;28;20013;-49
2023/11/12 08:33:51;;;;;;;22.38;20.50;;;;;;;12.77;100.00;98078.97;5092441;28;20107;-49
2023/11/12 08:36:17;;;;;;;2.67;2.40;;;;;;;12.99;100.00;98093.13;5090968;28;20114;-49
2023/11/12 08:38:43;;;;;;;5.90;1.77;;;;;;;13.31;100.00;98086.72;5091007;28;20036;-49
2023/11/12 08:41:11;;;;;;;5.22;3.25;;;;;;;13.60;100.00;98092.81;5074153;28;20107;-49
2023/11/12 08:43:37;;;;;;;2.67;1.42;;;;;;;13.88;100.00;98099.94;5091836;28;20398;-49
2023/11/12 08:46:03;;;;;;;4.57;1.52;;;;;;;13.94;100.00;98100.84;5092403;28;20027;-49
2023/11/12 08:48:32;;;;;;;2.65;1.13;;;;;;;14.08;100.00;98096.88;5092419;28;20481;-49
2023/11/12 08:50:59;;;;;;;2.45;1.30;;;;;;;14.17;100.00;98086.75;5091016;28;20030;-49
2023/11/12 08:53:27;;;;;;;3.20;1.98;;;;;;;14.43;100.00;98097.69;5092129;28;20024;-49
2023/11/12 08:55:53;;;;;;;5.38;1.58;;;;;;;14.52;99.74;98097.06;5092090;28;20020;-49
2023/11/12 08:58:20;;;;;;;2.33;1.08;;;;;;;14.58;100.00;98098.00;5092046;28;20027;-49
2023/11/12 09:00:47;;;;;;;6.40;4.88;;;;;;;14.77;99.63;98088.00;5092046;28;20038;-49
2023/11/12 09:03:12;;;;;;;4.57;1.55;;;;;;;15.86;100.00;98106.81;5091939;28;20078;-47
2023/11/12 09:05:38;;;;;;;6.53;2.47;;;;;;;17.10;96.61;98098.81;5092215;28;20028;-47
2023/11/12 09:08:04;;;;;;;4.45;3.92;;;;;;;17.57;98.16;98097.97;5091969;28;20103;-47
2023/11/12 09:10:29;;;;;;;5.05;4.43;;;;;;;17.40;98.55;98108.78;5091816;28;20016;-47
2023/11/12 09:12:55;;;;;;;8.20;2.15;;;;;;;17.17;99.39;98102.03;5091883;28;20024;-46
2023/11/12 09:15:21;;;;;;;3.00;1.30;;;;;;;17.41;100.00;98107.72;5091859;28;20024;-47
2023/11/12 09:17:47;;;;;;;2.17;0.82;;;;;;;19.15;100.00;98107.13;5092154;28;20028;-47
2023/11/12 09:20:15;;;;;;;3.50;1.40;;;;;;;21.09;96.94;98113.09;5090491;28;20107;-47
2023/11/12 09:22:40;;;;;;;2.95;1.23;;;;;;;22.12;90.22;98109.97;5091559;28;20072;-47
2023/11/12 09:25:07;;;;;;;4.72;1.25;;;;;;;21.37;88.36;98124.00;5090441;28;20084;-46
2023/11/12 09:27:32;;;;;;;12.10;10.93;;;;;;;20.27;85.09;98131.66;5091747;28;20032;-47
2023/11/12 09:30:00;;;;;;;19.90;18.25;;;;;;;19.37;86.39;98128.06;5090301;28;20486;-47
2023/11/12 09:32:26;;;;;;;3.10;1.73;;;;;;;18.86;88.38;98139.63;5090384;28;20413;-47
2023/11/12 09:34:52;;;;;;;4.47;1.60;;;;;;;18.38;88.13;98136.41;5091705;28;20103;-46
2023/11/12 09:37:17;;;;;;;4.38;3.42;;;;;;;18.06;89.15;98142.72;5091634;28;20082;-46
2023/11/12 09:39:43;;;;;;;5.63;3.92;;;;;;;17.93;90.46;98151.22;5091732;28;20021;-46
2023/11/12 09:42:12;;;;;;;44.08;39.17;;;;;;;17.97;84.80;98160.25;5091550;28;20052;-46
2023/11/12 09:44:39;;;;;;;76.20;67.82;;;;;;;18.11;87.69;98169.31;5091578;28;20556;-46
2023/11/12 09:47:22;;;;;;;10.18;7.72;;;;;;;18.00;85.27;98169.53;5091548;28;20469;-46
2023/11/12 09:49:50;;;;;;;53.42;47.65;;;;;;;17.81;87.34;98182.44;5090239;28;20103;-46
2023/11/12 09:52:16;;;;;;;24.48;21.65;;;;;;;17.70;87.94;98190.34;5091456;28;20028;-46
2023/11/12 09:54:45;;;;;;;59.92;54.20;;;;;;;17.70;88.73;98190.34;5073381;28;20032;-46
2023/11/12 09:57:10;;;;;;;16.65;14.95;;;;;;;17.67;88.56;98201.50;5094390;28;20020;-46
2023/11/12 09:59:36;;;;;;;33.92;19.35;;;;;;;17.48;87.15;98198.47;5093993;28;20045;-46
2023/11/12 10:02:06;;;;;;;16.60;14.82;;;;;;;17.30;85.72;98206.84;5093893;28;20031;-47
2023/11/12 10:04:32;;;;;;;7.10;5.10;;;;;;;17.08;87.18;98199.03;5094026;28;20048;-46
2023/11/12 10:06:59;;;;;;;5.63;1.73;;;;;;;17.10;86.14;98210.16;5095471;28;20097;-46
2023/11/12 10:09:31;;;;;;;3.55;1.55;;;;;;;17.12;83.81;98202.75;5095138;28;20012;-46
2023/11/12 10:12:04;;;;;;;6.72;3.65;;;;;;;17.04;81.08;98211.97;5093870;28;20035;-46
2023/11/12 10:14:29;;;;;;;4.22;1.27;;;;;;;16.86;82.24;98212.38;5093834;28;20020;-46
2023/11/12 10:17:11;;;;;;;11.45;1.85;;;;;;;16.68;82.57;98209.03;5095112;28;20046;-46
2023/11/12 10:19:37;;;;;;;7.68;1.63;;;;;;;16.74;85.38;98201.91;5094997;28;20048;-46
2023/11/12 10:22:06;;;;;;;3.97;1.65;;;;;;;16.67;83.17;98199.47;5094710;28;20090;-46
2023/11/12 10:24:43;;;;;;;5.00;2.22;;;;;;;16.60;83.41;98216.63;5094958;28;20243;-47
2023/11/12 10:27:14;;;;;;;7.03;2.58;;;;;;;16.58;81.79;98201.78;5094939;28;20031;-46
2023/11/12 10:29:41;;;;;;;3.05;1.80;;;;;;;16.66;82.79;98205.84;5094909;28;20059;-46
2023/11/12 10:32:07;;;;;;;7.80;2.42;;;;;;;16.60;81.50;98206.03;5094716;28;20024;-47
2023/11/12 10:34:33;;;;;;;6.65;1.58;;;;;;;16.56;80.78;98198.59;5093432;28;20119;-47
2023/11/12 10:37:07;;;;;;;5.38;1.38;;;;;;;16.44;81.47;98207.72;5060096;28;20081;-47
2023/11/12 10:39:34;;;;;;;4.38;1.17;;;;;;;16.22;81.48;98215.69;5094643;28;20036;-47
2023/11/12 10:42:00;;;;;;;5.07;1.48;;;;;;;15.88;83.49;98216.66;5094563;28;20020;-47
2023/11/12 10:44:26;;;;;;;4.88;1.65;;;;;;;15.52;82.09;98218.81;5094469;28;20035;-46
2023/11/12 10:46:54;;;;;;;6.15;2.50;;;;;;;15.20;82.81;98217.81;5093162;28;20401;-46
2023/11/12 10:49:23;;;;;;;5.60;1.55;;;;;;;15.02;84.23;98218.88;5093141;28;20030;-46
2023/11/12 10:51:50;;;;;;;3.20;1.70;;;;;;;15.13;85.88;98221.44;5093088;28;20574;-46
2023/11/12 10:54:16;;;;;;;5.15;1.40;;;;;;;15.63;86.42;98225.03;5094322;28;20437;-47
2023/11/12 10:56:43;;;;;;;3.97;2.00;;;;;;;16.06;82.67;98226.13;5094550;28;20405;-47
2023/11/12 10:59:11;;;;;;;4.90;1.60;;;;;;;16.24;84.59;98227.66;5094171;28;20111;-47
2023/11/12 11:01:39;;;;;;;4.22;1.45;;;;;;;16.41;83.57;98238.16;5094128;28;20013;-47
2023/11/12 11:04:08;;;;;;;3.03;1.67;;;;;;;16.51;81.04;98235.63;5094138;28;20421;-47
2023/11/12 11:06:37;;;;;;;9.95;1.60;;;;;;;16.60;82.77;98240.47;5092302;28;20379;-47
2023/11/12 11:09:04;;;;;;;6.63;1.63;;;;;;;16.54;81.91;98242.25;5093940;28;20020;-47
2023/11/12 11:11:30;;;;;;;5.63;1.75;;;;;;;16.37;84.56;98240.50;5093896;28;20020;-47
2023/11/12 11:13:56;;;;;;;6.10;1.60;;;;;;;16.10;85.63;98253.72;5094008;28;20039;-47
2023/11/12 11:16:48;;;;;;;7.45;4.68;;;;;;;15.80;83.79;98255.97;5092664;28;20061;-47
2023/11/12 11:19:14;;;;;;;10.95;3.63;;;;;;;15.70;87.59;98257.41;5093837;28;20028;-46
2023/11/12 11:21:40;;;;;;;5.32;1.90;;;;;;;15.62;86.08;98270.25;5093458;28;20119;-47
2023/11/12 11:24:06;;;;;;;6.07;1.92;;;;;;;15.61;84.67;98263.34;5092494;28;20038;-47
2023/11/12 11:26:42;;;;;;;4.57;1.50;;;;;;;16.00;85.37;98258.88;5093730;28;20073;-46
2023/11/12 11:29:09;;;;;;;3.88;1.95;;;;;;;16.97;86.03;98265.22;5093651;28;20050;-47